sensor_id;sensor_type;location;lat;lon;timestamp;temperature;humidity
16625;DHT22;8426;48.496;9.098;2024-03-07T00:04:04;5.20;99.90
16625;DHT22;8426;48.496;9.098;2024-03-07T00:09:20;5.20;99.90
16625;DHT22;8426;48.496;9.098;2024-03-07T00:14:29;5.30;99.90
16625;DHT22;8426;48.496;9.098;2024-03-07T00:19:32;5.30;99.90
16625;DHT22;8426;48.496;9.098;2024-03-07T00:24:36;5.30;99.90
16625;DHT22;8426;48.496;9.098;2024-03-07T00:29:42;5.20;99.90
16625;DHT22;8426;48.496;9.098;2024-03-07T00:34:46;5.30;99.90
16625;DHT22;8426;48.496;9.098;2024-03-07T00:39:50;5.30;99.90
16625;DHT22;8426;48.496;9.098;2024-03-07T00:44:55;5.30;99.90
16625;DHT22;8426;48.496;9.098;2024-03-07T00:50:01;5.20;99.90
16625;DHT22;8426;48.496;9.098;2024-03-07T00:55:06;5.20;99.90
16625;DHT22;8426;48.496;9.098;2024-03-07T01:00:16;5.20;99.90
16625;DHT22;8426;48.496;9.098;2024-03-07T01:05:23;5.10;99.90
16625;DHT22;8426;48.496;9.098;2024-03-07T01:10:30;5.00;99.90
16625;DHT22;8426;48.496;9.098;2024-03-07T01:15:52;4.90;99.90
16625;DHT22;8426;48.496;9.098;2024-03-07T01:20:56;4.80;99.90
16625;DHT22;8426;48.496;9.098;2024-03-07T01:26:00;4.80;99.90
16625;DHT22;8426;48.496;9.098;2024-03-07T01:31:17;4.70;99.90
16625;DHT22;8426;48.496;9.098;2024-03-07T01:36:20;4.70;99.90
16625;DHT22;8426;48.496;9.098;2024-03-07T01:41:24;4.60;99.90
16625;DHT22;8426;48.496;9.098;2024-03-07T01:46:35;4.60;99.90
16625;DHT22;8426;48.496;9.098;2024-03-07T01:51:39;4.50;99.90
16625;DHT22;8426;48.496;9.098;2024-03-07T01:56:46;4.50;99.90
16625;DHT22;8426;48.496;9.098;2024-03-07T02:01:55;4.50;99.90
16625;DHT22;8426;48.496;9.098;2024-03-07T02:07:14;4.40;99.90
16625;DHT22;8426;48.496;9.098;2024-03-07T02:12:32;4.30;99.90
16625;DHT22;8426;48.496;9.098;2024-03-07T02:17:38;4.30;99.90
16625;DHT22;8426;48.496;9.098;2024-03-07T02:22:43;4.20;99.90
16625;DHT22;8426;48.496;9.098;2024-03-07T02:27:47;4.10;99.90
16625;DHT22;8426;48.496;9.098;2024-03-07T02:32:50;4.00;99.90
16625;DHT22;8426;48.496;9.098;2024-03-07T02:37:59;4.00;99.90
16625;DHT22;8426;48.496;9.098;2024-03-07T02:43:03;4.00;99.90
16625;DHT22;8426;48.496;9.098;2024-03-07T02:48:07;3.90;99.90
16625;DHT22;8426;48.496;9.098;2024-03-07T02:53:14;3.80;99.90
16625;DHT22;8426;48.496;9.098;2024-03-07T02:58:17;3.80;99.90
16625;DHT22;8426;48.496;9.098;2024-03-07T03:03:21;3.70;99.90
16625;DHT22;8426;48.496;9.098;2024-03-07T03:08:26;3.70;99.90
16625;DHT22;8426;48.496;9.098;2024-03-07T03:13:30;3.60;99.90
16625;DHT22;8426;48.496;9.098;2024-03-07T03:18:34;3.50;99.90
16625;DHT22;8426;48.496;9.098;2024-03-07T03:23:39;3.40;99.90
16625;DHT22;8426;48.496;9.098;2024-03-07T03:28:43;3.40;99.90
16625;DHT22;8426;48.496;9.098;2024-03-07T03:33:47;3.20;99.90
16625;DHT22;8426;48.496;9.098;2024-03-07T03:38:52;3.00;99.90
16625;DHT22;8426;48.496;9.098;2024-03-07T03:43:55;2.80;99.90
16625;DHT22;8426;48.496;9.098;2024-03-07T03:49:00;2.70;99.90
16625;DHT22;8426;48.496;9.098;2024-03-07T03:54:05;2.60;99.90
16625;DHT22;8426;48.496;9.098;2024-03-07T03:59:09;2.50;99.90
16625;DHT22;8426;48.496;9.098;2024-03-07T04:04:12;2.50;99.90
16625;DHT22;8426;48.496;9.098;2024-03-07T04:09:17;2.40;99.90
16625;DHT22;8426;48.496;9.098;2024-03-07T04:14:22;2.30;99.90
16625;DHT22;8426;48.496;9.098;2024-03-07T04:19:25;2.30;99.90
16625;DHT22;8426;48.496;9.098;2024-03-07T04:24:31;2.30;99.90
16625;DHT22;8426;48.496;9.098;2024-03-07T04:29:35;2.40;99.90
16625;DHT22;8426;48.496;9.098;2024-03-07T04:34:39;2.40;99.90
16625;DHT22;8426;48.496;9.098;2024-03-07T04:39:44;2.30;99.90
16625;DHT22;8426;48.496;9.098;2024-03-07T04:44:48;2.40;99.90
16625;DHT22;8426;48.496;9.098;2024-03-07T04:49:51;2.40;99.90
16625;DHT22;8426;48.496;9.098;2024-03-07T04:54:56;2.40;99.90
16625;DHT22;8426;48.496;9.098;2024-03-07T05:00:00;2.50;99.90
16625;DHT22;8426;48.496;9.098;2024-03-07T05:05:04;2.50;99.90
16625;DHT22;8426;48.496;9.098;2024-03-07T05:10:09;2.50;99.90
16625;DHT22;8426;48.496;9.098;2024-03-07T05:15:13;2.50;99.90
16625;DHT22;8426;48.496;9.098;2024-03-07T05:20:17;2.50;99.90
16625;DHT22;8426;48.496;9.098;2024-03-07T05:25:22;2.50;99.90
16625;DHT22;8426;48.496;9.098;2024-03-07T05:30:25;2.50;99.90
16625;DHT22;8426;48.496;9.098;2024-03-07T05:35:30;2.40;99.90
16625;DHT22;8426;48.496;9.098;2024-03-07T05:40:35;2.40;99.90
16625;DHT22;8426;48.496;9.098;2024-03-07T05:45:39;2.40;99.90
16625;DHT22;8426;48.496;9.098;2024-03-07T05:50:44;2.40;99.90
16625;DHT22;8426;48.496;9.098;2024-03-07T05:55:50;2.40;99.90
16625;DHT22;8426;48.496;9.098;2024-03-07T06:00:53;2.40;99.90
16625;DHT22;8426;48.496;9.098;2024-03-07T06:05:57;2.40;99.90
16625;DHT22;8426;48.496;9.098;2024-03-07T06:11:02;2.40;99.90
16625;DHT22;8426;48.496;9.098;2024-03-07T06:16:07;2.40;99.90
16625;DHT22;8426;48.496;9.098;2024-03-07T06:21:11;2.40;99.90
16625;DHT22;8426;48.496;9.098;2024-03-07T06:26:17;2.40;99.90
16625;DHT22;8426;48.496;9.098;2024-03-07T06:31:29;2.30;99.90
16625;DHT22;8426;48.496;9.098;2024-03-07T06:36:32;2.30;99.90
16625;DHT22;8426;48.496;9.098;2024-03-07T06:41:37;2.30;99.90
16625;DHT22;8426;48.496;9.098;2024-03-07T06:46:41;2.20;99.90
16625;DHT22;8426;48.496;9.098;2024-03-07T06:51:47;2.30;99.90
16625;DHT22;8426;48.496;9.098;2024-03-07T06:56:52;2.40;99.90
16625;DHT22;8426;48.496;9.098;2024-03-07T07:01:55;2.40;99.90
16625;DHT22;8426;48.496;9.098;2024-03-07T07:07:00;2.30;99.90
16625;DHT22;8426;48.496;9.098;2024-03-07T07:12:06;2.30;99.90
16625;DHT22;8426;48.496;9.098;2024-03-07T07:17:10;2.30;99.90
16625;DHT22;8426;48.496;9.098;2024-03-07T07:22:16;2.40;99.90
16625;DHT22;8426;48.496;9.098;2024-03-07T07:27:22;2.40;99.90
16625;DHT22;8426;48.496;9.098;2024-03-07T07:32:26;2.30;99.90
16625;DHT22;8426;48.496;9.098;2024-03-07T07:37:30;2.30;99.90
16625;DHT22;8426;48.496;9.098;2024-03-07T07:42:35;2.40;99.90
16625;DHT22;8426;48.496;9.098;2024-03-07T07:47:41;2.50;99.90
16625;DHT22;8426;48.496;9.098;2024-03-07T07:52:47;2.50;99.90
16625;DHT22;8426;48.496;9.098;2024-03-07T07:57:54;2.50;99.90
16625;DHT22;8426;48.496;9.098;2024-03-07T08:03:00;2.50;99.90
16625;DHT22;8426;48.496;9.098;2024-03-07T08:08:06;2.50;99.90
16625;DHT22;8426;48.496;9.098;2024-03-07T08:13:11;2.60;99.90
16625;DHT22;8426;48.496;9.098;2024-03-07T08:18:16;2.70;99.90
16625;DHT22;8426;48.496;9.098;2024-03-07T08:23:22;2.80;99.90
16625;DHT22;8426;48.496;9.098;2024-03-07T08:28:29;2.80;99.90
16625;DHT22;8426;48.496;9.098;2024-03-07T08:33:32;2.80;99.90
16625;DHT22;8426;48.496;9.098;2024-03-07T08:38:36;2.70;99.90
16625;DHT22;8426;48.496;9.098;2024-03-07T08:43:41;2.80;99.90
16625;DHT22;8426;48.496;9.098;2024-03-07T08:48:45;3.00;99.90
16625;DHT22;8426;48.496;9.098;2024-03-07T08:53:49;3.10;99.90
16625;DHT22;8426;48.496;9.098;2024-03-07T08:58:54;3.20;99.90
16625;DHT22;8426;48.496;9.098;2024-03-07T09:03:57;3.20;99.90
16625;DHT22;8426;48.496;9.098;2024-03-07T09:09:02;3.10;99.90
16625;DHT22;8426;48.496;9.098;2024-03-07T09:14:07;3.10;99.90
16625;DHT22;8426;48.496;9.098;2024-03-07T09:19:11;3.30;99.90
16625;DHT22;8426;48.496;9.098;2024-03-07T09:24:16;3.30;99.90
16625;DHT22;8426;48.496;9.098;2024-03-07T09:29:20;3.20;99.90
16625;DHT22;8426;48.496;9.098;2024-03-07T09:34:24;3.30;99.90
16625;DHT22;8426;48.496;9.098;2024-03-07T09:39:28;3.60;99.90
16625;DHT22;8426;48.496;9.098;2024-03-07T09:44:36;3.80;99.90
16625;DHT22;8426;48.496;9.098;2024-03-07T09:49:42;3.60;99.90
16625;DHT22;8426;48.496;9.098;2024-03-07T09:54:46;4.10;99.90
16625;DHT22;8426;48.496;9.098;2024-03-07T09:59:52;4.20;99.90
16625;DHT22;8426;48.496;9.098;2024-03-07T10:04:58;4.70;99.90
16625;DHT22;8426;48.496;9.098;2024-03-07T10:10:04;4.40;99.90
16625;DHT22;8426;48.496;9.098;2024-03-07T10:15:15;4.50;99.90
16625;DHT22;8426;48.496;9.098;2024-03-07T10:20:19;4.70;99.90
16625;DHT22;8426;48.496;9.098;2024-03-07T10:25:25;4.90;99.90
16625;DHT22;8426;48.496;9.098;2024-03-07T10:30:39;5.10;99.90
16625;DHT22;8426;48.496;9.098;2024-03-07T10:35:47;4.90;99.90
16625;DHT22;8426;48.496;9.098;2024-03-07T10:40:53;4.90;99.90
16625;DHT22;8426;48.496;9.098;2024-03-07T10:45:59;4.90;99.90
16625;DHT22;8426;48.496;9.098;2024-03-07T10:51:16;5.10;99.90
16625;DHT22;8426;48.496;9.098;2024-03-07T10:56:35;5.20;99.90
16625;DHT22;8426;48.496;9.098;2024-03-07T11:01:53;5.50;99.90
16625;DHT22;8426;48.496;9.098;2024-03-07T11:06:59;5.50;99.90
16625;DHT22;8426;48.496;9.098;2024-03-07T11:12:03;5.70;99.90
16625;DHT22;8426;48.496;9.098;2024-03-07T11:17:10;5.60;99.90
16625;DHT22;8426;48.496;9.098;2024-03-07T11:22:28;5.60;99.90
16625;DHT22;8426;48.496;9.098;2024-03-07T11:27:36;5.80;99.90
16625;DHT22;8426;48.496;9.098;2024-03-07T11:32:43;5.90;99.90
16625;DHT22;8426;48.496;9.098;2024-03-07T11:37:48;5.70;99.90
16625;DHT22;8426;48.496;9.098;2024-03-07T11:42:55;5.60;99.90
16625;DHT22;8426;48.496;9.098;2024-03-07T11:48:05;5.70;99.90
16625;DHT22;8426;48.496;9.098;2024-03-07T11:53:10;5.70;99.90
16625;DHT22;8426;48.496;9.098;2024-03-07T11:58:15;5.80;99.90
16625;DHT22;8426;48.496;9.098;2024-03-07T12:03:21;6.10;99.90
16625;DHT22;8426;48.496;9.098;2024-03-07T12:08:27;6.90;99.90
16625;DHT22;8426;48.496;9.098;2024-03-07T12:13:31;7.50;99.90
16625;DHT22;8426;48.496;9.098;2024-03-07T12:18:39;8.10;99.90
16625;DHT22;8426;48.496;9.098;2024-03-07T12:23:45;9.10;99.90
16625;DHT22;8426;48.496;9.098;2024-03-07T12:28:49;9.50;99.90
16625;DHT22;8426;48.496;9.098;2024-03-07T12:33:54;9.80;99.90
16625;DHT22;8426;48.496;9.098;2024-03-07T12:38:58;9.80;99.90
16625;DHT22;8426;48.496;9.098;2024-03-07T12:44:11;9.60;99.90
16625;DHT22;8426;48.496;9.098;2024-03-07T12:49:17;9.50;99.90
16625;DHT22;8426;48.496;9.098;2024-03-07T12:54:21;8.80;99.90
16625;DHT22;8426;48.496;9.098;2024-03-07T12:59:25;8.60;99.90
16625;DHT22;8426;48.496;9.098;2024-03-07T13:04:30;8.40;99.90
16625;DHT22;8426;48.496;9.098;2024-03-07T13:09:35;8.00;99.90
16625;DHT22;8426;48.496;9.098;2024-03-07T13:14:40;7.70;99.90
16625;DHT22;8426;48.496;9.098;2024-03-07T13:19:48;7.40;99.90
16625;DHT22;8426;48.496;9.098;2024-03-07T13:25:02;7.30;99.90
16625;DHT22;8426;48.496;9.098;2024-03-07T13:30:16;7.20;99.90
16625;DHT22;8426;48.496;9.098;2024-03-07T13:35:27;6.90;99.90
16625;DHT22;8426;48.496;9.098;2024-03-07T13:40:31;6.90;99.90
16625;DHT22;8426;48.496;9.098;2024-03-07T13:45:37;7.30;99.90
16625;DHT22;8426;48.496;9.098;2024-03-07T13:50:44;7.80;99.90
16625;DHT22;8426;48.496;9.098;2024-03-07T13:56:28;8.00;99.90
16625;DHT22;8426;48.496;9.098;2024-03-07T14:01:43;8.00;99.90
16625;DHT22;8426;48.496;9.098;2024-03-07T14:07:12;7.70;99.90
16625;DHT22;8426;48.496;9.098;2024-03-07T14:12:52;7.70;99.90
16625;DHT22;8426;48.496;9.098;2024-03-07T14:18:25;7.60;99.90
16625;DHT22;8426;48.496;9.098;2024-03-07T14:24:07;7.30;99.90
16625;DHT22;8426;48.496;9.098;2024-03-07T14:29:22;7.40;99.90
16625;DHT22;8426;48.496;9.098;2024-03-07T14:34:38;7.50;99.90
16625;DHT22;8426;48.496;9.098;2024-03-07T14:39:55;7.30;99.90
16625;DHT22;8426;48.496;9.098;2024-03-07T14:45:01;7.20;99.90
16625;DHT22;8426;48.496;9.098;2024-03-07T14:50:10;7.30;99.90
16625;DHT22;8426;48.496;9.098;2024-03-07T14:55:16;7.10;99.90
16625;DHT22;8426;48.496;9.098;2024-03-07T15:00:21;7.30;99.90
16625;DHT22;8426;48.496;9.098;2024-03-07T15:05:38;7.30;99.90
16625;DHT22;8426;48.496;9.098;2024-03-07T15:10:47;7.30;99.90
16625;DHT22;8426;48.496;9.098;2024-03-07T15:15:52;7.50;99.90
16625;DHT22;8426;48.496;9.098;2024-03-07T15:20:57;7.30;99.90
16625;DHT22;8426;48.496;9.098;2024-03-07T15:26:02;7.30;99.90
16625;DHT22;8426;48.496;9.098;2024-03-07T15:31:06;7.20;99.90
16625;DHT22;8426;48.496;9.098;2024-03-07T15:36:16;7.00;99.90
16625;DHT22;8426;48.496;9.098;2024-03-07T15:41:22;6.80;99.90
16625;DHT22;8426;48.496;9.098;2024-03-07T15:46:25;6.80;99.90
16625;DHT22;8426;48.496;9.098;2024-03-07T15:51:29;6.80;99.90
16625;DHT22;8426;48.496;9.098;2024-03-07T15:56:34;6.60;99.90
16625;DHT22;8426;48.496;9.098;2024-03-07T16:01:37;6.70;99.90
16625;DHT22;8426;48.496;9.098;2024-03-07T16:06:42;6.70;99.90
16625;DHT22;8426;48.496;9.098;2024-03-07T16:11:48;6.60;99.90
16625;DHT22;8426;48.496;9.098;2024-03-07T16:16:51;6.60;99.90
16625;DHT22;8426;48.496;9.098;2024-03-07T16:21:56;6.60;99.90
16625;DHT22;8426;48.496;9.098;2024-03-07T16:27:01;6.60;99.90
16625;DHT22;8426;48.496;9.098;2024-03-07T16:32:06;6.50;99.90
16625;DHT22;8426;48.496;9.098;2024-03-07T16:37:14;6.50;99.90
16625;DHT22;8426;48.496;9.098;2024-03-07T16:42:18;6.50;99.90
16625;DHT22;8426;48.496;9.098;2024-03-07T16:47:22;6.30;99.90
16625;DHT22;8426;48.496;9.098;2024-03-07T16:52:26;6.20;99.90
16625;DHT22;8426;48.496;9.098;2024-03-07T16:57:32;6.20;99.90
16625;DHT22;8426;48.496;9.098;2024-03-07T17:02:36;6.10;99.90
16625;DHT22;8426;48.496;9.098;2024-03-07T17:07:40;6.00;99.90
16625;DHT22;8426;48.496;9.098;2024-03-07T17:12:46;5.80;99.90
16625;DHT22;8426;48.496;9.098;2024-03-07T17:17:50;5.80;99.90
16625;DHT22;8426;48.496;9.098;2024-03-07T17:22:55;5.70;99.90
16625;DHT22;8426;48.496;9.098;2024-03-07T17:28:00;5.60;99.90
16625;DHT22;8426;48.496;9.098;2024-03-07T17:33:04;5.70;99.90
16625;DHT22;8426;48.496;9.098;2024-03-07T17:38:10;5.90;99.90
16625;DHT22;8426;48.496;9.098;2024-03-07T17:43:15;5.90;99.90
16625;DHT22;8426;48.496;9.098;2024-03-07T17:48:19;5.90;99.90
16625;DHT22;8426;48.496;9.098;2024-03-07T17:53:23;5.90;99.90
16625;DHT22;8426;48.496;9.098;2024-03-07T17:58:29;5.70;99.90
16625;DHT22;8426;48.496;9.098;2024-03-07T18:03:37;5.70;99.90
16625;DHT22;8426;48.496;9.098;2024-03-07T18:08:41;5.60;99.90
16625;DHT22;8426;48.496;9.098;2024-03-07T18:13:57;5.60;99.90
16625;DHT22;8426;48.496;9.098;2024-03-07T18:19:01;5.60;99.90
16625;DHT22;8426;48.496;9.098;2024-03-07T18:24:05;5.60;99.90
16625;DHT22;8426;48.496;9.098;2024-03-07T18:29:11;5.60;99.90
16625;DHT22;8426;48.496;9.098;2024-03-07T18:34:15;5.60;99.90
16625;DHT22;8426;48.496;9.098;2024-03-07T18:39:19;5.80;99.90
16625;DHT22;8426;48.496;9.098;2024-03-07T18:44:27;5.80;99.90
16625;DHT22;8426;48.496;9.098;2024-03-07T18:49:35;5.70;99.90
16625;DHT22;8426;48.496;9.098;2024-03-07T18:54:40;5.60;99.90
16625;DHT22;8426;48.496;9.098;2024-03-07T18:59:49;5.60;99.90
16625;DHT22;8426;48.496;9.098;2024-03-07T19:04:56;5.60;99.90
16625;DHT22;8426;48.496;9.098;2024-03-07T19:10:01;5.50;99.90
16625;DHT22;8426;48.496;9.098;2024-03-07T19:15:21;5.40;99.90
16625;DHT22;8426;48.496;9.098;2024-03-07T19:20:25;5.30;99.90
16625;DHT22;8426;48.496;9.098;2024-03-07T19:25:34;5.20;99.90
16625;DHT22;8426;48.496;9.098;2024-03-07T19:30:39;5.20;99.90
16625;DHT22;8426;48.496;9.098;2024-03-07T19:35:45;5.30;99.90
16625;DHT22;8426;48.496;9.098;2024-03-07T19:40:50;5.20;99.90
16625;DHT22;8426;48.496;9.098;2024-03-07T19:45:55;5.20;99.90
16625;DHT22;8426;48.496;9.098;2024-03-07T19:50:59;5.10;99.90
16625;DHT22;8426;48.496;9.098;2024-03-07T19:56:08;5.10;99.90
16625;DHT22;8426;48.496;9.098;2024-03-07T20:01:16;5.00;99.90
16625;DHT22;8426;48.496;9.098;2024-03-07T20:06:20;4.90;99.90
16625;DHT22;8426;48.496;9.098;2024-03-07T20:11:23;4.90;99.90
16625;DHT22;8426;48.496;9.098;2024-03-07T20:16:37;4.90;99.90
16625;DHT22;8426;48.496;9.098;2024-03-07T20:21:40;4.80;99.90
16625;DHT22;8426;48.496;9.098;2024-03-07T20:26:49;4.70;99.90
16625;DHT22;8426;48.496;9.098;2024-03-07T20:31:57;4.70;99.90
16625;DHT22;8426;48.496;9.098;2024-03-07T20:37:01;4.60;99.90
16625;DHT22;8426;48.496;9.098;2024-03-07T20:42:05;4.60;99.90
16625;DHT22;8426;48.496;9.098;2024-03-07T20:47:41;4.60;99.90
16625;DHT22;8426;48.496;9.098;2024-03-07T20:52:53;4.50;99.90
16625;DHT22;8426;48.496;9.098;2024-03-07T20:57:56;4.50;99.90
16625;DHT22;8426;48.496;9.098;2024-03-07T21:03:04;4.60;99.90
16625;DHT22;8426;48.496;9.098;2024-03-07T21:08:09;4.60;99.90
16625;DHT22;8426;48.496;9.098;2024-03-07T21:13:38;4.60;99.90
16625;DHT22;8426;48.496;9.098;2024-03-07T21:18:54;4.60;99.90
16625;DHT22;8426;48.496;9.098;2024-03-07T21:23:58;4.60;99.90
16625;DHT22;8426;48.496;9.098;2024-03-07T21:29:02;4.50;99.90
16625;DHT22;8426;48.496;9.098;2024-03-07T21:34:08;4.30;99.90
16625;DHT22;8426;48.496;9.098;2024-03-07T21:39:13;4.20;99.90
16625;DHT22;8426;48.496;9.098;2024-03-07T21:44:16;4.00;99.90
16625;DHT22;8426;48.496;9.098;2024-03-07T21:49:21;4.00;99.90
16625;DHT22;8426;48.496;9.098;2024-03-07T21:54:25;3.90;99.90
16625;DHT22;8426;48.496;9.098;2024-03-07T21:59:28;3.70;99.90
16625;DHT22;8426;48.496;9.098;2024-03-07T22:04:33;3.70;99.90
16625;DHT22;8426;48.496;9.098;2024-03-07T22:09:52;3.40;99.90
16625;DHT22;8426;48.496;9.098;2024-03-07T22:14:55;3.40;99.90
16625;DHT22;8426;48.496;9.098;2024-03-07T22:20:01;3.30;99.90
16625;DHT22;8426;48.496;9.098;2024-03-07T22:25:07;3.30;99.90
16625;DHT22;8426;48.496;9.098;2024-03-07T22:30:20;3.30;99.90
16625;DHT22;8426;48.496;9.098;2024-03-07T22:35:27;3.10;99.90
16625;DHT22;8426;48.496;9.098;2024-03-07T22:40:32;3.00;99.90
16625;DHT22;8426;48.496;9.098;2024-03-07T22:45:36;2.90;99.90
16625;DHT22;8426;48.496;9.098;2024-03-07T22:50:55;2.80;99.90
16625;DHT22;8426;48.496;9.098;2024-03-07T22:56:16;2.70;99.90
16625;DHT22;8426;48.496;9.098;2024-03-07T23:01:46;2.70;99.90
16625;DHT22;8426;48.496;9.098;2024-03-07T23:06:53;2.70;99.90
16625;DHT22;8426;48.496;9.098;2024-03-07T23:11:57;2.60;99.90
16625;DHT22;8426;48.496;9.098;2024-03-07T23:17:03;2.50;99.90
16625;DHT22;8426;48.496;9.098;2024-03-07T23:22:08;2.40;99.90
16625;DHT22;8426;48.496;9.098;2024-03-07T23:27:11;2.40;99.90
16625;DHT22;8426;48.496;9.098;2024-03-07T23:32:15;2.30;99.90
16625;DHT22;8426;48.496;9.098;2024-03-07T23:37:20;2.30;99.90
16625;DHT22;8426;48.496;9.098;2024-03-07T23:42:31;2.30;99.90
16625;DHT22;8426;48.496;9.098;2024-03-07T23:47:37;2.20;99.90
16625;DHT22;8426;48.496;9.098;2024-03-07T23:52:55;2.20;99.90
16625;DHT22;8426;48.496;9.098;2024-03-07T23:58:01;2.10;99.90
